sensor_id;sensor_type;location;lat;lon;timestamp;P1;durP1;ratioP1;P2;durP2;ratioP2
23596;SDS011;40226;50.874;4.394;2022-09-09T00:04:15;6.78;;;1.83;;
23596;SDS011;40226;50.874;4.394;2022-09-09T00:07:03;9.57;;;2.03;;
23596;SDS011;40226;50.874;4.394;2022-09-09T00:09:30;6.75;;;2.25;;
23596;SDS011;40226;50.874;4.394;2022-09-09T00:12:14;5.72;;;1.85;;
23596;SDS011;40226;50.874;4.394;2022-09-09T00:14:47;6.70;;;1.95;;
23596;SDS011;40226;50.874;4.394;2022-09-09T00:17:43;7.05;;;2.10;;
23596;SDS011;40226;50.874;4.394;2022-09-09T00:20:49;6.45;;;2.13;;
23596;SDS011;40226;50.874;4.394;2022-09-09T00:23:39;8.15;;;2.17;;
23596;SDS011;40226;50.874;4.394;2022-09-09T00:31:40;4.75;;;1.80;;
23596;SDS011;40226;50.874;4.394;2022-09-09T00:34:11;6.50;;;1.83;;
23596;SDS011;40226;50.874;4.394;2022-09-09T00:36:39;6.70;;;2.35;;
23596;SDS011;40226;50.874;4.394;2022-09-09T00:39:13;6.45;;;1.90;;
23596;SDS011;40226;50.874;4.394;2022-09-09T00:42:01;6.30;;;1.98;;
23596;SDS011;40226;50.874;4.394;2022-09-09T00:44:32;6.22;;;1.83;;
23596;SDS011;40226;50.874;4.394;2022-09-09T00:47:12;6.00;;;1.85;;
23596;SDS011;40226;50.874;4.394;2022-09-09T00:57:51;6.20;;;1.98;;
23596;SDS011;40226;50.874;4.394;2022-09-09T01:00:22;6.45;;;1.80;;
23596;SDS011;40226;50.874;4.394;2022-09-09T01:06:00;4.00;;;1.38;;
23596;SDS011;40226;50.874;4.394;2022-09-09T01:11:25;7.28;;;1.77;;
23596;SDS011;40226;50.874;4.394;2022-09-09T01:16:42;7.22;;;1.90;;
23596;SDS011;40226;50.874;4.394;2022-09-09T01:19:10;4.78;;;1.58;;
23596;SDS011;40226;50.874;4.394;2022-09-09T01:27:01;6.13;;;1.50;;
23596;SDS011;40226;50.874;4.394;2022-09-09T01:29:29;6.95;;;2.05;;
23596;SDS011;40226;50.874;4.394;2022-09-09T01:31:59;6.63;;;2.25;;
23596;SDS011;40226;50.874;4.394;2022-09-09T01:34:30;7.88;;;2.13;;
23596;SDS011;40226;50.874;4.394;2022-09-09T01:37:04;5.55;;;2.15;;
23596;SDS011;40226;50.874;4.394;2022-09-09T01:39:35;9.77;;;1.85;;
23596;SDS011;40226;50.874;4.394;2022-09-09T01:42:04;9.38;;;2.20;;
23596;SDS011;40226;50.874;4.394;2022-09-09T01:44:31;9.27;;;2.63;;
23596;SDS011;40226;50.874;4.394;2022-09-09T01:46:58;9.40;;;2.28;;
23596;SDS011;40226;50.874;4.394;2022-09-09T01:49:24;6.75;;;2.00;;
23596;SDS011;40226;50.874;4.394;2022-09-09T01:51:50;9.60;;;2.08;;
23596;SDS011;40226;50.874;4.394;2022-09-09T01:54:18;10.25;;;2.67;;
23596;SDS011;40226;50.874;4.394;2022-09-09T01:59:45;9.02;;;2.63;;
23596;SDS011;40226;50.874;4.394;2022-09-09T02:03:08;8.73;;;2.78;;
23596;SDS011;40226;50.874;4.394;2022-09-09T02:05:49;9.73;;;2.47;;
23596;SDS011;40226;50.874;4.394;2022-09-09T02:08:45;8.13;;;2.40;;
23596;SDS011;40226;50.874;4.394;2022-09-09T02:11:14;13.63;;;2.78;;
23596;SDS011;40226;50.874;4.394;2022-09-09T02:13:48;7.95;;;2.38;;
23596;SDS011;40226;50.874;4.394;2022-09-09T02:16:24;11.85;;;2.78;;
23596;SDS011;40226;50.874;4.394;2022-09-09T02:18:55;6.90;;;2.67;;
23596;SDS011;40226;50.874;4.394;2022-09-09T02:21:27;12.27;;;2.50;;
23596;SDS011;40226;50.874;4.394;2022-09-09T02:23:55;11.23;;;2.88;;
23596;SDS011;40226;50.874;4.394;2022-09-09T02:26:23;11.45;;;2.90;;
23596;SDS011;40226;50.874;4.394;2022-09-09T02:28:50;11.38;;;3.42;;
23596;SDS011;40226;50.874;4.394;2022-09-09T02:31:20;12.27;;;2.65;;
23596;SDS011;40226;50.874;4.394;2022-09-09T02:33:57;12.30;;;3.58;;
23596;SDS011;40226;50.874;4.394;2022-09-09T02:36:26;11.15;;;3.33;;
23596;SDS011;40226;50.874;4.394;2022-09-09T02:38:54;9.00;;;2.67;;
23596;SDS011;40226;50.874;4.394;2022-09-09T02:41:23;14.85;;;3.00;;
23596;SDS011;40226;50.874;4.394;2022-09-09T02:43:52;11.23;;;3.03;;
23596;SDS011;40226;50.874;4.394;2022-09-09T02:46:32;13.77;;;2.65;;
23596;SDS011;40226;50.874;4.394;2022-09-09T02:49:11;12.63;;;2.72;;
23596;SDS011;40226;50.874;4.394;2022-09-09T02:51:55;10.43;;;2.88;;
23596;SDS011;40226;50.874;4.394;2022-09-09T02:56:57;11.15;;;3.30;;
23596;SDS011;40226;50.874;4.394;2022-09-09T02:59:32;9.35;;;3.03;;
23596;SDS011;40226;50.874;4.394;2022-09-09T03:01:59;13.85;;;2.80;;
23596;SDS011;40226;50.874;4.394;2022-09-09T03:04:24;10.32;;;2.78;;
23596;SDS011;40226;50.874;4.394;2022-09-09T03:06:50;10.90;;;2.78;;
23596;SDS011;40226;50.874;4.394;2022-09-09T03:09:16;13.77;;;2.83;;
23596;SDS011;40226;50.874;4.394;2022-09-09T03:11:42;11.35;;;2.75;;
23596;SDS011;40226;50.874;4.394;2022-09-09T03:14:07;12.13;;;3.33;;
23596;SDS011;40226;50.874;4.394;2022-09-09T03:16:33;11.77;;;2.70;;
23596;SDS011;40226;50.874;4.394;2022-09-09T03:18:59;12.80;;;3.20;;
23596;SDS011;40226;50.874;4.394;2022-09-09T03:21:25;15.07;;;3.85;;
23596;SDS011;40226;50.874;4.394;2022-09-09T03:23:51;10.65;;;2.70;;
23596;SDS011;40226;50.874;4.394;2022-09-09T03:26:17;11.98;;;2.60;;
23596;SDS011;40226;50.874;4.394;2022-09-09T03:28:42;11.77;;;2.75;;
23596;SDS011;40226;50.874;4.394;2022-09-09T03:31:09;9.05;;;2.53;;
23596;SDS011;40226;50.874;4.394;2022-09-09T03:33:38;14.13;;;3.30;;
23596;SDS011;40226;50.874;4.394;2022-09-09T03:36:06;13.80;;;2.50;;
23596;SDS011;40226;50.874;4.394;2022-09-09T03:38:33;11.55;;;3.13;;
23596;SDS011;40226;50.874;4.394;2022-09-09T03:40:59;15.45;;;3.35;;
23596;SDS011;40226;50.874;4.394;2022-09-09T03:43:27;12.40;;;3.20;;
23596;SDS011;40226;50.874;4.394;2022-09-09T03:45:53;9.55;;;3.00;;
23596;SDS011;40226;50.874;4.394;2022-09-09T03:48:22;10.05;;;2.78;;
23596;SDS011;40226;50.874;4.394;2022-09-09T03:50:50;13.48;;;3.33;;
23596;SDS011;40226;50.874;4.394;2022-09-09T03:53:19;10.25;;;2.95;;
23596;SDS011;40226;50.874;4.394;2022-09-09T03:55:46;14.02;;;3.70;;
23596;SDS011;40226;50.874;4.394;2022-09-09T03:58:14;10.82;;;3.38;;
23596;SDS011;40226;50.874;4.394;2022-09-09T04:00:40;11.30;;;3.40;;
23596;SDS011;40226;50.874;4.394;2022-09-09T04:03:09;12.32;;;2.80;;
23596;SDS011;40226;50.874;4.394;2022-09-09T04:05:35;14.25;;;2.88;;
23596;SDS011;40226;50.874;4.394;2022-09-09T04:08:05;11.63;;;2.70;;
23596;SDS011;40226;50.874;4.394;2022-09-09T04:10:31;14.05;;;3.50;;
23596;SDS011;40226;50.874;4.394;2022-09-09T04:12:56;15.52;;;3.35;;
23596;SDS011;40226;50.874;4.394;2022-09-09T04:15:22;10.68;;;2.92;;
23596;SDS011;40226;50.874;4.394;2022-09-09T04:17:47;11.48;;;3.00;;
23596;SDS011;40226;50.874;4.394;2022-09-09T04:20:13;10.65;;;3.13;;
23596;SDS011;40226;50.874;4.394;2022-09-09T04:22:38;12.48;;;2.90;;
23596;SDS011;40226;50.874;4.394;2022-09-09T04:25:05;14.90;;;3.55;;
23596;SDS011;40226;50.874;4.394;2022-09-09T04:27:31;17.35;;;3.30;;
23596;SDS011;40226;50.874;4.394;2022-09-09T04:29:57;10.43;;;2.88;;
23596;SDS011;40226;50.874;4.394;2022-09-09T04:32:22;10.07;;;3.70;;
23596;SDS011;40226;50.874;4.394;2022-09-09T04:34:51;13.73;;;3.38;;
23596;SDS011;40226;50.874;4.394;2022-09-09T04:37:16;17.92;;;3.65;;
23596;SDS011;40226;50.874;4.394;2022-09-09T04:39:42;13.60;;;3.55;;
23596;SDS011;40226;50.874;4.394;2022-09-09T04:42:07;15.20;;;3.75;;
23596;SDS011;40226;50.874;4.394;2022-09-09T04:44:33;15.40;;;4.05;;
23596;SDS011;40226;50.874;4.394;2022-09-09T04:46:58;12.70;;;3.50;;
23596;SDS011;40226;50.874;4.394;2022-09-09T04:49:24;13.52;;;3.92;;
23596;SDS011;40226;50.874;4.394;2022-09-09T04:51:50;14.50;;;3.90;;
23596;SDS011;40226;50.874;4.394;2022-09-09T04:54:16;16.63;;;3.70;;
23596;SDS011;40226;50.874;4.394;2022-09-09T04:56:42;15.50;;;3.15;;
23596;SDS011;40226;50.874;4.394;2022-09-09T04:59:08;11.30;;;3.50;;
23596;SDS011;40226;50.874;4.394;2022-09-09T05:01:35;15.57;;;3.75;;
23596;SDS011;40226;50.874;4.394;2022-09-09T05:04:01;15.85;;;3.85;;
23596;SDS011;40226;50.874;4.394;2022-09-09T05:06:27;12.35;;;3.45;;
23596;SDS011;40226;50.874;4.394;2022-09-09T05:08:54;15.93;;;4.75;;
23596;SDS011;40226;50.874;4.394;2022-09-09T05:11:23;16.38;;;4.22;;
23596;SDS011;40226;50.874;4.394;2022-09-09T05:13:50;20.92;;;4.60;;
23596;SDS011;40226;50.874;4.394;2022-09-09T05:16:17;18.42;;;4.30;;
23596;SDS011;40226;50.874;4.394;2022-09-09T05:18:43;13.85;;;4.25;;
23596;SDS011;40226;50.874;4.394;2022-09-09T05:21:10;15.80;;;4.20;;
23596;SDS011;40226;50.874;4.394;2022-09-09T05:23:36;17.58;;;4.40;;
23596;SDS011;40226;50.874;4.394;2022-09-09T05:26:02;16.85;;;3.95;;
23596;SDS011;40226;50.874;4.394;2022-09-09T05:28:29;15.63;;;4.15;;
23596;SDS011;40226;50.874;4.394;2022-09-09T05:31:02;14.32;;;4.03;;
23596;SDS011;40226;50.874;4.394;2022-09-09T05:33:36;14.65;;;3.80;;
23596;SDS011;40226;50.874;4.394;2022-09-09T05:36:03;11.90;;;4.10;;
23596;SDS011;40226;50.874;4.394;2022-09-09T05:38:30;20.55;;;3.88;;
23596;SDS011;40226;50.874;4.394;2022-09-09T05:41:07;15.70;;;3.90;;
23596;SDS011;40226;50.874;4.394;2022-09-09T05:43:35;12.77;;;3.83;;
23596;SDS011;40226;50.874;4.394;2022-09-09T05:48:29;16.33;;;4.38;;
23596;SDS011;40226;50.874;4.394;2022-09-09T05:50:56;21.50;;;4.50;;
23596;SDS011;40226;50.874;4.394;2022-09-09T05:53:23;16.13;;;3.88;;
23596;SDS011;40226;50.874;4.394;2022-09-09T05:55:49;11.63;;;3.70;;
23596;SDS011;40226;50.874;4.394;2022-09-09T05:58:15;12.88;;;3.42;;
23596;SDS011;40226;50.874;4.394;2022-09-09T06:00:41;16.85;;;4.60;;
23596;SDS011;40226;50.874;4.394;2022-09-09T06:03:09;15.95;;;3.92;;
23596;SDS011;40226;50.874;4.394;2022-09-09T06:05:36;17.88;;;4.47;;
23596;SDS011;40226;50.874;4.394;2022-09-09T06:08:02;17.23;;;4.22;;
23596;SDS011;40226;50.874;4.394;2022-09-09T06:10:28;15.63;;;3.95;;
23596;SDS011;40226;50.874;4.394;2022-09-09T06:12:54;17.58;;;4.20;;
23596;SDS011;40226;50.874;4.394;2022-09-09T06:15:19;15.65;;;3.60;;
23596;SDS011;40226;50.874;4.394;2022-09-09T06:17:45;17.70;;;3.95;;
23596;SDS011;40226;50.874;4.394;2022-09-09T06:20:10;13.05;;;3.85;;
23596;SDS011;40226;50.874;4.394;2022-09-09T06:22:39;10.63;;;3.45;;
23596;SDS011;40226;50.874;4.394;2022-09-09T06:25:06;18.40;;;4.20;;
23596;SDS011;40226;50.874;4.394;2022-09-09T06:27:32;13.63;;;3.28;;
23596;SDS011;40226;50.874;4.394;2022-09-09T06:29:58;17.50;;;3.53;;
23596;SDS011;40226;50.874;4.394;2022-09-09T06:32:23;13.07;;;3.20;;
23596;SDS011;40226;50.874;4.394;2022-09-09T06:34:50;14.15;;;3.20;;
23596;SDS011;40226;50.874;4.394;2022-09-09T06:37:15;17.00;;;3.60;;
23596;SDS011;40226;50.874;4.394;2022-09-09T06:39:41;13.35;;;4.15;;
23596;SDS011;40226;50.874;4.394;2022-09-09T06:42:06;17.85;;;3.75;;
23596;SDS011;40226;50.874;4.394;2022-09-09T06:44:33;17.80;;;3.90;;
23596;SDS011;40226;50.874;4.394;2022-09-09T06:46:59;12.52;;;3.25;;
23596;SDS011;40226;50.874;4.394;2022-09-09T06:49:25;15.60;;;3.45;;
23596;SDS011;40226;50.874;4.394;2022-09-09T06:51:50;14.60;;;3.75;;
23596;SDS011;40226;50.874;4.394;2022-09-09T06:54:17;12.95;;;3.40;;
23596;SDS011;40226;50.874;4.394;2022-09-09T06:56:43;21.08;;;3.53;;
23596;SDS011;40226;50.874;4.394;2022-09-09T06:59:10;16.63;;;3.45;;
23596;SDS011;40226;50.874;4.394;2022-09-09T07:01:41;14.38;;;3.50;;
23596;SDS011;40226;50.874;4.394;2022-09-09T07:04:14;15.20;;;3.38;;
23596;SDS011;40226;50.874;4.394;2022-09-09T07:06:40;9.50;;;2.75;;
23596;SDS011;40226;50.874;4.394;2022-09-09T07:09:09;15.40;;;3.38;;
23596;SDS011;40226;50.874;4.394;2022-09-09T07:11:42;15.93;;;3.90;;
23596;SDS011;40226;50.874;4.394;2022-09-09T07:14:09;12.63;;;3.00;;
23596;SDS011;40226;50.874;4.394;2022-09-09T07:16:42;14.55;;;3.15;;
23596;SDS011;40226;50.874;4.394;2022-09-09T07:19:09;10.05;;;2.60;;
23596;SDS011;40226;50.874;4.394;2022-09-09T07:21:36;14.07;;;2.50;;
23596;SDS011;40226;50.874;4.394;2022-09-09T07:24:01;13.65;;;3.20;;
23596;SDS011;40226;50.874;4.394;2022-09-09T07:26:29;15.10;;;3.55;;
23596;SDS011;40226;50.874;4.394;2022-09-09T07:28:55;11.15;;;2.92;;
23596;SDS011;40226;50.874;4.394;2022-09-09T07:31:26;11.23;;;2.63;;
23596;SDS011;40226;50.874;4.394;2022-09-09T07:33:55;15.80;;;2.67;;
23596;SDS011;40226;50.874;4.394;2022-09-09T07:36:22;11.43;;;3.03;;
23596;SDS011;40226;50.874;4.394;2022-09-09T07:38:51;11.88;;;2.92;;
23596;SDS011;40226;50.874;4.394;2022-09-09T07:41:20;10.95;;;2.85;;
23596;SDS011;40226;50.874;4.394;2022-09-09T07:43:47;9.95;;;3.13;;
23596;SDS011;40226;50.874;4.394;2022-09-09T07:46:15;9.27;;;3.00;;
23596;SDS011;40226;50.874;4.394;2022-09-09T07:48:46;13.02;;;3.50;;
23596;SDS011;40226;50.874;4.394;2022-09-09T07:51:16;14.35;;;3.38;;
23596;SDS011;40226;50.874;4.394;2022-09-09T07:53:47;16.45;;;4.00;;
23596;SDS011;40226;50.874;4.394;2022-09-09T07:56:16;12.32;;;3.55;;
23596;SDS011;40226;50.874;4.394;2022-09-09T07:58:44;12.50;;;3.42;;
23596;SDS011;40226;50.874;4.394;2022-09-09T08:01:45;11.77;;;3.38;;
23596;SDS011;40226;50.874;4.394;2022-09-09T08:04:11;12.80;;;3.35;;
23596;SDS011;40226;50.874;4.394;2022-09-09T08:06:40;11.05;;;3.10;;
23596;SDS011;40226;50.874;4.394;2022-09-09T08:09:08;13.93;;;3.42;;
23596;SDS011;40226;50.874;4.394;2022-09-09T08:11:34;11.15;;;2.97;;
23596;SDS011;40226;50.874;4.394;2022-09-09T08:14:01;9.05;;;2.83;;
23596;SDS011;40226;50.874;4.394;2022-09-09T08:16:31;13.88;;;3.10;;
23596;SDS011;40226;50.874;4.394;2022-09-09T08:18:58;14.88;;;3.47;;
23596;SDS011;40226;50.874;4.394;2022-09-09T08:21:28;10.60;;;3.13;;
23596;SDS011;40226;50.874;4.394;2022-09-09T08:23:56;12.88;;;3.05;;
23596;SDS011;40226;50.874;4.394;2022-09-09T08:26:30;15.32;;;3.38;;
23596;SDS011;40226;50.874;4.394;2022-09-09T08:28:59;12.73;;;2.80;;
23596;SDS011;40226;50.874;4.394;2022-09-09T08:34:02;11.82;;;3.20;;
23596;SDS011;40226;50.874;4.394;2022-09-09T08:36:29;8.35;;;3.17;;
23596;SDS011;40226;50.874;4.394;2022-09-09T08:38:58;12.85;;;3.30;;
23596;SDS011;40226;50.874;4.394;2022-09-09T08:41:30;12.75;;;3.33;;
23596;SDS011;40226;50.874;4.394;2022-09-09T08:44:00;18.92;;;3.60;;
23596;SDS011;40226;50.874;4.394;2022-09-09T08:52:16;13.45;;;3.53;;
23596;SDS011;40226;50.874;4.394;2022-09-09T08:55:05;9.48;;;4.10;;
23596;SDS011;40226;50.874;4.394;2022-09-09T08:57:38;16.33;;;3.50;;
23596;SDS011;40226;50.874;4.394;2022-09-09T09:00:04;12.77;;;3.55;;
23596;SDS011;40226;50.874;4.394;2022-09-09T09:02:46;11.18;;;3.42;;
23596;SDS011;40226;50.874;4.394;2022-09-09T09:08:14;13.10;;;3.40;;
23596;SDS011;40226;50.874;4.394;2022-09-09T09:10:53;10.88;;;3.50;;
23596;SDS011;40226;50.874;4.394;2022-09-09T09:13:34;11.43;;;3.30;;
23596;SDS011;40226;50.874;4.394;2022-09-09T09:16:11;9.57;;;3.08;;
23596;SDS011;40226;50.874;4.394;2022-09-09T09:18:57;12.52;;;3.65;;
23596;SDS011;40226;50.874;4.394;2022-09-09T09:21:34;14.30;;;3.70;;
23596;SDS011;40226;50.874;4.394;2022-09-09T09:24:07;13.98;;;3.63;;
23596;SDS011;40226;50.874;4.394;2022-09-09T09:26:52;14.18;;;4.05;;
23596;SDS011;40226;50.874;4.394;2022-09-09T09:29:18;11.23;;;3.60;;
23596;SDS011;40226;50.874;4.394;2022-09-09T09:31:53;12.98;;;3.70;;
23596;SDS011;40226;50.874;4.394;2022-09-09T09:34:22;14.80;;;4.00;;
23596;SDS011;40226;50.874;4.394;2022-09-09T09:36:53;10.90;;;4.28;;
23596;SDS011;40226;50.874;4.394;2022-09-09T09:39:26;15.02;;;3.75;;
23596;SDS011;40226;50.874;4.394;2022-09-09T09:42:13;11.45;;;4.07;;
23596;SDS011;40226;50.874;4.394;2022-09-09T09:44:40;12.93;;;3.92;;
23596;SDS011;40226;50.874;4.394;2022-09-09T09:47:16;14.82;;;4.05;;
23596;SDS011;40226;50.874;4.394;2022-09-09T09:49:56;15.63;;;4.65;;
23596;SDS011;40226;50.874;4.394;2022-09-09T09:52:25;19.52;;;4.90;;
23596;SDS011;40226;50.874;4.394;2022-09-09T09:54:53;13.75;;;4.35;;
23596;SDS011;40226;50.874;4.394;2022-09-09T09:57:26;11.73;;;4.10;;
23596;SDS011;40226;50.874;4.394;2022-09-09T10:02:38;8.82;;;3.25;;
23596;SDS011;40226;50.874;4.394;2022-09-09T10:08:00;13.00;;;3.78;;
23596;SDS011;40226;50.874;4.394;2022-09-09T10:10:32;11.95;;;3.92;;
23596;SDS011;40226;50.874;4.394;2022-09-09T10:13:12;11.32;;;3.83;;
23596;SDS011;40226;50.874;4.394;2022-09-09T10:18:38;13.10;;;4.60;;
23596;SDS011;40226;50.874;4.394;2022-09-09T10:22:05;9.82;;;4.25;;
23596;SDS011;40226;50.874;4.394;2022-09-09T10:35:04;13.35;;;3.90;;
23596;SDS011;40226;50.874;4.394;2022-09-09T10:46:20;11.65;;;3.67;;
23596;SDS011;40226;50.874;4.394;2022-09-09T10:56:58;9.88;;;3.40;;
23596;SDS011;40226;50.874;4.394;2022-09-09T10:59:41;10.40;;;3.00;;
23596;SDS011;40226;50.874;4.394;2022-09-09T11:02:13;8.60;;;3.10;;
23596;SDS011;40226;50.874;4.394;2022-09-09T11:07:10;8.25;;;3.17;;
23596;SDS011;40226;50.874;4.394;2022-09-09T11:09:43;9.45;;;2.72;;
23596;SDS011;40226;50.874;4.394;2022-09-09T11:12:15;8.80;;;2.55;;
23596;SDS011;40226;50.874;4.394;2022-09-09T11:17:56;9.35;;;2.80;;
23596;SDS011;40226;50.874;4.394;2022-09-09T11:20:11;9.55;;;2.70;;
23596;SDS011;40226;50.874;4.394;2022-09-09T11:22:37;8.10;;;2.63;;
23596;SDS011;40226;50.874;4.394;2022-09-09T11:36:26;7.05;;;2.88;;
23596;SDS011;40226;50.874;4.394;2022-09-09T11:42:05;9.55;;;2.55;;
23596;SDS011;40226;50.874;4.394;2022-09-09T11:44:37;10.32;;;2.45;;
23596;SDS011;40226;50.874;4.394;2022-09-09T11:47:03;8.15;;;2.70;;
23596;SDS011;40226;50.874;4.394;2022-09-09T11:49:29;10.82;;;2.90;;
23596;SDS011;40226;50.874;4.394;2022-09-09T11:54:47;8.60;;;2.50;;
23596;SDS011;40226;50.874;4.394;2022-09-09T11:57:22;6.95;;;2.20;;
23596;SDS011;40226;50.874;4.394;2022-09-09T11:59:52;6.03;;;2.10;;
23596;SDS011;40226;50.874;4.394;2022-09-09T12:02:19;8.40;;;2.78;;
23596;SDS011;40226;50.874;4.394;2022-09-09T12:07:31;6.25;;;2.22;;
23596;SDS011;40226;50.874;4.394;2022-09-09T12:12:45;7.60;;;3.00;;
23596;SDS011;40226;50.874;4.394;2022-09-09T12:17:44;9.65;;;2.78;;
23596;SDS011;40226;50.874;4.394;2022-09-09T12:28:25;8.68;;;2.88;;
23596;SDS011;40226;50.874;4.394;2022-09-09T12:31:14;12.38;;;3.10;;
23596;SDS011;40226;50.874;4.394;2022-09-09T12:37:10;6.38;;;2.30;;
23596;SDS011;40226;50.874;4.394;2022-09-09T12:39:56;8.98;;;2.47;;
23596;SDS011;40226;50.874;4.394;2022-09-09T12:42:24;8.18;;;2.47;;
23596;SDS011;40226;50.874;4.394;2022-09-09T12:44:51;8.82;;;2.80;;
23596;SDS011;40226;50.874;4.394;2022-09-09T12:47:25;7.40;;;2.17;;
23596;SDS011;40226;50.874;4.394;2022-09-09T12:50:12;7.43;;;2.38;;
23596;SDS011;40226;50.874;4.394;2022-09-09T12:52:47;5.80;;;2.03;;
23596;SDS011;40226;50.874;4.394;2022-09-09T12:55:17;10.90;;;2.25;;
23596;SDS011;40226;50.874;4.394;2022-09-09T12:57:46;8.10;;;2.05;;
23596;SDS011;40226;50.874;4.394;2022-09-09T13:00:16;8.13;;;2.45;;
23596;SDS011;40226;50.874;4.394;2022-09-09T13:05:24;4.20;;;1.85;;
23596;SDS011;40226;50.874;4.394;2022-09-09T13:07:49;6.68;;;2.00;;
23596;SDS011;40226;50.874;4.394;2022-09-09T13:10:20;5.18;;;2.03;;
23596;SDS011;40226;50.874;4.394;2022-09-09T13:12:49;7.43;;;2.20;;
23596;SDS011;40226;50.874;4.394;2022-09-09T13:15:22;6.05;;;1.67;;
23596;SDS011;40226;50.874;4.394;2022-09-09T13:17:50;5.32;;;2.20;;
23596;SDS011;40226;50.874;4.394;2022-09-09T13:20:18;5.85;;;1.83;;
23596;SDS011;40226;50.874;4.394;2022-09-09T13:22:45;6.82;;;1.95;;
23596;SDS011;40226;50.874;4.394;2022-09-09T13:25:19;5.38;;;2.13;;
23596;SDS011;40226;50.874;4.394;2022-09-09T13:28:01;3.88;;;1.60;;
23596;SDS011;40226;50.874;4.394;2022-09-09T13:36:04;7.07;;;2.08;;
23596;SDS011;40226;50.874;4.394;2022-09-09T13:38:36;5.47;;;2.20;;
23596;SDS011;40226;50.874;4.394;2022-09-09T13:41:25;5.50;;;2.20;;
23596;SDS011;40226;50.874;4.394;2022-09-09T13:44:02;6.00;;;2.50;;
23596;SDS011;40226;50.874;4.394;2022-09-09T13:46:37;3.30;;;1.70;;
23596;SDS011;40226;50.874;4.394;2022-09-09T13:54:15;6.07;;;2.60;;
23596;SDS011;40226;50.874;4.394;2022-09-09T13:56:42;4.75;;;1.70;;
23596;SDS011;40226;50.874;4.394;2022-09-09T13:59:10;5.10;;;1.80;;
23596;SDS011;40226;50.874;4.394;2022-09-09T14:01:37;5.25;;;1.88;;
23596;SDS011;40226;50.874;4.394;2022-09-09T14:04:03;5.03;;;1.77;;
23596;SDS011;40226;50.874;4.394;2022-09-09T14:06:31;6.03;;;2.05;;
23596;SDS011;40226;50.874;4.394;2022-09-09T14:09:00;7.20;;;2.47;;
23596;SDS011;40226;50.874;4.394;2022-09-09T14:11:25;6.90;;;2.10;;
23596;SDS011;40226;50.874;4.394;2022-09-09T14:13:51;4.07;;;1.80;;
23596;SDS011;40226;50.874;4.394;2022-09-09T14:16:17;3.85;;;1.90;;
23596;SDS011;40226;50.874;4.394;2022-09-09T14:18:46;4.75;;;2.20;;
23596;SDS011;40226;50.874;4.394;2022-09-09T14:21:11;6.70;;;2.17;;
23596;SDS011;40226;50.874;4.394;2022-09-09T14:23:37;6.18;;;2.40;;
23596;SDS011;40226;50.874;4.394;2022-09-09T14:26:04;6.70;;;2.47;;
23596;SDS011;40226;50.874;4.394;2022-09-09T14:28:31;6.90;;;2.45;;
23596;SDS011;40226;50.874;4.394;2022-09-09T14:31:02;7.28;;;2.58;;
23596;SDS011;40226;50.874;4.394;2022-09-09T14:33:28;6.82;;;2.20;;
23596;SDS011;40226;50.874;4.394;2022-09-09T14:35:56;6.25;;;2.13;;
23596;SDS011;40226;50.874;4.394;2022-09-09T14:38:22;6.40;;;2.25;;
23596;SDS011;40226;50.874;4.394;2022-09-09T14:40:48;7.65;;;2.13;;
23596;SDS011;40226;50.874;4.394;2022-09-09T14:43:14;7.10;;;2.30;;
23596;SDS011;40226;50.874;4.394;2022-09-09T14:45:39;5.93;;;1.88;;
23596;SDS011;40226;50.874;4.394;2022-09-09T14:48:05;6.28;;;2.42;;
23596;SDS011;40226;50.874;4.394;2022-09-09T14:50:30;4.90;;;1.92;;
23596;SDS011;40226;50.874;4.394;2022-09-09T14:52:56;7.38;;;2.10;;
23596;SDS011;40226;50.874;4.394;2022-09-09T14:55:22;6.63;;;1.90;;
23596;SDS011;40226;50.874;4.394;2022-09-09T14:57:48;6.65;;;1.70;;
23596;SDS011;40226;50.874;4.394;2022-09-09T15:00:14;3.72;;;1.60;;
23596;SDS011;40226;50.874;4.394;2022-09-09T15:02:40;5.95;;;1.80;;
23596;SDS011;40226;50.874;4.394;2022-09-09T15:05:06;6.20;;;1.75;;
23596;SDS011;40226;50.874;4.394;2022-09-09T15:07:33;5.15;;;1.88;;
23596;SDS011;40226;50.874;4.394;2022-09-09T15:09:59;5.60;;;1.95;;
23596;SDS011;40226;50.874;4.394;2022-09-09T15:12:24;6.95;;;2.20;;
23596;SDS011;40226;50.874;4.394;2022-09-09T15:14:50;10.25;;;2.33;;
23596;SDS011;40226;50.874;4.394;2022-09-09T15:17:16;7.13;;;2.15;;
23596;SDS011;40226;50.874;4.394;2022-09-09T15:19:41;6.05;;;2.38;;
23596;SDS011;40226;50.874;4.394;2022-09-09T15:22:07;6.78;;;2.10;;
23596;SDS011;40226;50.874;4.394;2022-09-09T15:24:33;6.28;;;2.50;;
23596;SDS011;40226;50.874;4.394;2022-09-09T15:27:00;5.55;;;2.38;;
23596;SDS011;40226;50.874;4.394;2022-09-09T15:29:26;5.45;;;2.10;;
23596;SDS011;40226;50.874;4.394;2022-09-09T15:31:55;4.60;;;2.05;;
23596;SDS011;40226;50.874;4.394;2022-09-09T15:34:21;7.82;;;2.08;;
23596;SDS011;40226;50.874;4.394;2022-09-09T15:36:48;5.35;;;2.05;;
23596;SDS011;40226;50.874;4.394;2022-09-09T15:39:14;4.22;;;2.10;;
23596;SDS011;40226;50.874;4.394;2022-09-09T15:41:42;4.85;;;2.05;;
23596;SDS011;40226;50.874;4.394;2022-09-09T15:44:10;6.30;;;2.22;;
23596;SDS011;40226;50.874;4.394;2022-09-09T15:51:43;5.72;;;2.45;;
23596;SDS011;40226;50.874;4.394;2022-09-09T15:54:11;5.47;;;1.98;;
23596;SDS011;40226;50.874;4.394;2022-09-09T15:56:41;6.30;;;2.40;;
23596;SDS011;40226;50.874;4.394;2022-09-09T15:59:07;5.05;;;2.20;;
23596;SDS011;40226;50.874;4.394;2022-09-09T16:01:33;9.48;;;2.58;;
23596;SDS011;40226;50.874;4.394;2022-09-09T16:03:59;5.88;;;2.75;;
23596;SDS011;40226;50.874;4.394;2022-09-09T16:06:25;7.32;;;2.97;;
23596;SDS011;40226;50.874;4.394;2022-09-09T16:08:53;8.60;;;2.75;;
23596;SDS011;40226;50.874;4.394;2022-09-09T16:11:25;8.98;;;2.72;;
23596;SDS011;40226;50.874;4.394;2022-09-09T16:13:52;7.05;;;2.47;;
23596;SDS011;40226;50.874;4.394;2022-09-09T16:16:19;6.35;;;2.47;;
23596;SDS011;40226;50.874;4.394;2022-09-09T16:18:50;7.70;;;2.60;;
23596;SDS011;40226;50.874;4.394;2022-09-09T16:23:44;7.38;;;3.00;;
23596;SDS011;40226;50.874;4.394;2022-09-09T16:26:11;7.13;;;2.70;;
23596;SDS011;40226;50.874;4.394;2022-09-09T16:28:38;8.82;;;2.75;;
23596;SDS011;40226;50.874;4.394;2022-09-09T16:31:07;6.95;;;2.60;;
23596;SDS011;40226;50.874;4.394;2022-09-09T16:33:35;8.38;;;2.60;;
23596;SDS011;40226;50.874;4.394;2022-09-09T16:36:08;6.05;;;2.60;;
23596;SDS011;40226;50.874;4.394;2022-09-09T16:38:36;6.22;;;2.80;;
23596;SDS011;40226;50.874;4.394;2022-09-09T16:41:03;9.45;;;2.53;;
23596;SDS011;40226;50.874;4.394;2022-09-09T16:43:31;6.03;;;2.00;;
23596;SDS011;40226;50.874;4.394;2022-09-09T16:46:01;4.20;;;2.40;;
23596;SDS011;40226;50.874;4.394;2022-09-09T16:48:30;2.80;;;2.40;;
23596;SDS011;40226;50.874;4.394;2022-09-09T16:51:05;7.10;;;2.10;;
23596;SDS011;40226;50.874;4.394;2022-09-09T16:53:32;6.45;;;2.65;;
23596;SDS011;40226;50.874;4.394;2022-09-09T16:56:04;5.80;;;2.55;;
23596;SDS011;40226;50.874;4.394;2022-09-09T16:58:31;10.27;;;2.90;;
23596;SDS011;40226;50.874;4.394;2022-09-09T17:00:57;5.38;;;2.30;;
23596;SDS011;40226;50.874;4.394;2022-09-09T17:03:23;7.22;;;2.55;;
23596;SDS011;40226;50.874;4.394;2022-09-09T17:05:49;7.20;;;2.80;;
23596;SDS011;40226;50.874;4.394;2022-09-09T17:08:15;8.18;;;3.30;;
23596;SDS011;40226;50.874;4.394;2022-09-09T17:10:41;4.88;;;2.63;;
23596;SDS011;40226;50.874;4.394;2022-09-09T17:13:07;6.10;;;3.10;;
23596;SDS011;40226;50.874;4.394;2022-09-09T17:15:33;6.22;;;2.90;;
23596;SDS011;40226;50.874;4.394;2022-09-09T17:18:03;8.45;;;2.90;;
23596;SDS011;40226;50.874;4.394;2022-09-09T17:20:29;5.55;;;3.10;;
23596;SDS011;40226;50.874;4.394;2022-09-09T17:22:54;8.00;;;3.75;;
23596;SDS011;40226;50.874;4.394;2022-09-09T17:25:20;6.32;;;3.72;;